createdAt,value
2018-03-28T00:08:14.569Z,22.33
2018-03-28T00:18:23.256Z,20.53
2018-03-28T00:28:38.558Z,19.10
2018-03-28T00:38:47.662Z,17.20
2018-03-28T00:48:58.936Z,18.33
2018-03-28T00:59:11.189Z,16.63
2018-03-28T01:09:21.534Z,15.77
2018-03-28T01:19:33.955Z,15.83
2018-03-28T01:29:51.791Z,14.93
2018-03-28T01:40:07.334Z,15.27
2018-03-28T01:50:18.896Z,14.47
2018-03-28T02:00:28.988Z,14.47
2018-03-28T02:10:42.539Z,13.77
2018-03-28T02:21:00.872Z,14.03
2018-03-28T02:31:10.437Z,13.37
2018-03-28T02:41:20.193Z,13.37
2018-03-28T02:51:30.435Z,13.50
2018-03-28T03:01:48.854Z,12.70
2018-03-28T03:12:00.160Z,12.40
2018-03-28T03:22:13.997Z,13.40
2018-03-28T03:32:26.098Z,12.20
2018-03-28T03:42:38.889Z,12.60
2018-03-28T03:52:53.073Z,12.27
2018-03-28T04:03:07.814Z,12.40
2018-03-28T04:13:19.751Z,12.40
2018-03-28T04:23:34.527Z,12.10
2018-03-28T04:33:47.681Z,12.00
2018-03-28T04:43:57.567Z,11.47
2018-03-28T04:54:11.974Z,11.30
2018-03-28T05:04:31.656Z,12.00
2018-03-28T05:14:43.682Z,12.03
2018-03-28T05:24:56.536Z,11.83
2018-03-28T05:35:17.413Z,12.33
2018-03-28T05:45:26.814Z,11.43
2018-03-28T05:55:42.074Z,11.77
2018-03-28T06:05:56.869Z,11.50
2018-03-28T06:16:10.780Z,11.43
2018-03-28T06:26:21.591Z,11.40
2018-03-28T06:36:33.557Z,10.60
2018-03-28T06:46:50.176Z,11.30
2018-03-28T06:56:58.658Z,11.93
2018-03-28T07:07:14.877Z,16.30
2018-03-28T07:17:32.327Z,11.27
2018-03-28T07:27:44.345Z,19.50
2018-03-28T07:38:00.355Z,11.10
2018-03-28T07:48:14.700Z,11.27
2018-03-28T07:58:23.054Z,11.23
2018-03-28T08:08:34.285Z,14.50
2018-03-28T08:18:50.181Z,12.17
2018-03-28T08:29:02.780Z,13.63
2018-03-28T08:39:25.100Z,13.07
2018-03-28T08:49:42.998Z,12.73
2018-03-28T08:59:53.796Z,13.13
2018-03-28T09:10:04.886Z,12.33
2018-03-28T09:20:15.421Z,12.37
2018-03-28T09:30:31.399Z,12.47
2018-03-28T09:40:48.398Z,16.00
2018-03-28T09:50:56.903Z,13.00
2018-03-28T10:01:11.309Z,17.47
2018-03-28T10:11:21.733Z,20.00
2018-03-28T10:21:33.859Z,20.77
2018-03-28T10:31:46.738Z,21.77
2018-03-28T10:41:59.419Z,20.20
2018-03-28T10:52:16.811Z,22.87
2018-03-28T11:02:26.305Z,19.03
2018-03-28T11:12:34.729Z,24.67
2018-03-28T11:22:43.965Z,28.07
2018-03-28T11:32:52.665Z,32.20
2018-03-28T11:43:03.320Z,33.93
2018-03-28T11:53:13.816Z,28.50
2018-03-28T12:03:31.058Z,30.63
2018-03-28T12:13:51.119Z,27.23
2018-03-28T12:24:07.680Z,26.77
2018-03-28T12:34:18.398Z,22.73
2018-03-28T12:44:30.373Z,20.47
2018-03-28T12:54:43.554Z,19.13
2018-03-28T13:05:04.273Z,19.00
2018-03-28T13:15:16.310Z,17.60
2018-03-28T13:25:33.130Z,17.43
2018-03-28T13:35:46.718Z,17.93
2018-03-28T13:46:00.894Z,18.93
2018-03-28T13:56:14.584Z,22.23
2018-03-28T14:06:25.306Z,21.53
2018-03-28T14:16:41.166Z,21.20
2018-03-28T14:26:54.134Z,23.73
2018-03-28T14:37:10.105Z,24.50
2018-03-28T14:47:23.275Z,30.13
2018-03-28T14:57:38.367Z,23.40
2018-03-28T15:07:54.262Z,23.87
2018-03-28T15:18:06.315Z,26.77
2018-03-28T15:28:17.445Z,20.47
2018-03-28T15:38:33.397Z,21.33
2018-03-28T15:48:44.243Z,20.80
2018-03-28T15:59:05.020Z,21.83
2018-03-28T16:09:14.911Z,25.07
2018-03-28T16:19:27.014Z,25.87
2018-03-28T16:29:37.990Z,27.60
2018-03-28T16:39:51.163Z,25.23
2018-03-28T16:49:59.494Z,24.77
2018-03-28T17:00:11.742Z,25.37
2018-03-28T17:10:21.481Z,21.70
2018-03-28T17:20:32.709Z,21.93
2018-03-28T17:30:41.002Z,20.40
2018-03-28T17:40:50.356Z,20.07
2018-03-28T17:51:01.394Z,19.23
2018-03-28T18:01:20.551Z,18.70
2018-03-28T18:11:33.088Z,19.27
2018-03-28T18:21:43.893Z,18.63
2018-03-28T18:31:53.322Z,19.50
2018-03-28T18:42:03.657Z,22.83
2018-03-28T18:52:16.035Z,17.33
2018-03-28T19:02:25.153Z,17.20
2018-03-28T19:12:36.703Z,17.90
2018-03-28T19:22:49.078Z,18.00
2018-03-28T19:32:57.269Z,16.60
2018-03-28T19:43:12.536Z,20.97
2018-03-28T19:53:28.859Z,21.53
2018-03-28T20:03:37.790Z,18.93
2018-03-28T20:13:49.624Z,21.63
2018-03-28T20:23:57.710Z,20.53
2018-03-28T20:34:10.827Z,19.50
2018-03-28T20:44:29.525Z,21.10
2018-03-28T20:54:38.528Z,23.30
2018-03-28T21:04:54.660Z,24.13
2018-03-28T21:15:09.071Z,21.00
2018-03-28T21:25:19.438Z,27.63
2018-03-28T21:35:31.018Z,27.50
2018-03-28T21:45:48.870Z,24.50
2018-03-28T21:55:59.053Z,25.47
2018-03-28T22:06:08.782Z,26.73
2018-03-28T22:16:24.235Z,29.13
2018-03-28T22:26:36.546Z,26.57
2018-03-28T22:36:46.804Z,29.50
2018-03-28T22:47:03.871Z,23.80
2018-03-28T22:57:17.841Z,26.40
2018-03-28T23:07:32.596Z,26.93
2018-03-28T23:17:53.242Z,21.77
2018-03-28T23:38:52.203Z,21.73
2018-03-28T23:49:16.423Z,21.30
2018-03-28T23:59:32.169Z,20.43
